sensor_id;sensor_type;location;lat;lon;timestamp;temperature;humidity
32612;DHT22;19030;49.478;8.986;2022-11-15T00:00:16;6.90;99.90
32612;DHT22;19030;49.478;8.986;2022-11-15T00:02:35;6.90;99.90
32612;DHT22;19030;49.478;8.986;2022-11-15T00:04:54;6.90;99.90
32612;DHT22;19030;49.478;8.986;2022-11-15T00:07:13;6.90;99.90
32612;DHT22;19030;49.478;8.986;2022-11-15T00:09:32;6.90;99.90
32612;DHT22;19030;49.478;8.986;2022-11-15T00:11:51;6.90;99.90
32612;DHT22;19030;49.478;8.986;2022-11-15T00:14:11;6.90;99.90
32612;DHT22;19030;49.478;8.986;2022-11-15T00:16:30;6.80;99.90
32612;DHT22;19030;49.478;8.986;2022-11-15T00:18:49;6.80;99.90
32612;DHT22;19030;49.478;8.986;2022-11-15T00:21:11;6.80;99.90
32612;DHT22;19030;49.478;8.986;2022-11-15T00:23:31;6.80;99.90
32612;DHT22;19030;49.478;8.986;2022-11-15T00:25:57;6.80;99.90
32612;DHT22;19030;49.478;8.986;2022-11-15T00:28:16;6.80;99.90
32612;DHT22;19030;49.478;8.986;2022-11-15T00:30:35;6.80;99.90
32612;DHT22;19030;49.478;8.986;2022-11-15T00:32:54;6.80;99.90
32612;DHT22;19030;49.478;8.986;2022-11-15T00:35:13;6.70;99.90
32612;DHT22;19030;49.478;8.986;2022-11-15T00:37:32;6.60;99.90
32612;DHT22;19030;49.478;8.986;2022-11-15T00:39:51;6.60;99.90
32612;DHT22;19030;49.478;8.986;2022-11-15T00:42:10;6.60;99.90
32612;DHT22;19030;49.478;8.986;2022-11-15T00:44:29;6.60;99.90
32612;DHT22;19030;49.478;8.986;2022-11-15T00:46:48;6.50;99.90
32612;DHT22;19030;49.478;8.986;2022-11-15T00:49:07;6.50;99.90
32612;DHT22;19030;49.478;8.986;2022-11-15T00:51:26;6.50;99.90
32612;DHT22;19030;49.478;8.986;2022-11-15T00:53:45;6.50;99.90
32612;DHT22;19030;49.478;8.986;2022-11-15T00:56:04;6.40;99.90
32612;DHT22;19030;49.478;8.986;2022-11-15T00:58:23;6.40;99.90
32612;DHT22;19030;49.478;8.986;2022-11-15T01:00:42;6.40;99.90
32612;DHT22;19030;49.478;8.986;2022-11-15T01:03:01;6.30;99.90
32612;DHT22;19030;49.478;8.986;2022-11-15T01:05:21;6.30;99.90
32612;DHT22;19030;49.478;8.986;2022-11-15T01:07:40;6.30;99.90
32612;DHT22;19030;49.478;8.986;2022-11-15T01:09:59;6.30;99.90
32612;DHT22;19030;49.478;8.986;2022-11-15T01:12:18;6.20;99.90
32612;DHT22;19030;49.478;8.986;2022-11-15T01:14:37;6.20;99.90
32612;DHT22;19030;49.478;8.986;2022-11-15T01:16:56;6.20;99.90
32612;DHT22;19030;49.478;8.986;2022-11-15T01:19:15;6.20;99.90
32612;DHT22;19030;49.478;8.986;2022-11-15T01:21:34;6.20;99.90
32612;DHT22;19030;49.478;8.986;2022-11-15T01:23:54;6.20;99.90
32612;DHT22;19030;49.478;8.986;2022-11-15T01:26:15;6.20;99.90
32612;DHT22;19030;49.478;8.986;2022-11-15T01:28:36;6.20;99.90
32612;DHT22;19030;49.478;8.986;2022-11-15T01:30:58;6.20;99.90
32612;DHT22;19030;49.478;8.986;2022-11-15T01:33:17;6.20;99.90
32612;DHT22;19030;49.478;8.986;2022-11-15T01:35:38;6.20;99.90
32612;DHT22;19030;49.478;8.986;2022-11-15T01:37:58;6.20;99.90
32612;DHT22;19030;49.478;8.986;2022-11-15T01:40:17;6.30;99.90
32612;DHT22;19030;49.478;8.986;2022-11-15T01:42:36;6.30;99.90
32612;DHT22;19030;49.478;8.986;2022-11-15T01:44:55;6.30;99.90
32612;DHT22;19030;49.478;8.986;2022-11-15T01:47:24;6.30;99.90
32612;DHT22;19030;49.478;8.986;2022-11-15T01:49:58;6.30;99.90
32612;DHT22;19030;49.478;8.986;2022-11-15T01:52:19;6.30;99.90
32612;DHT22;19030;49.478;8.986;2022-11-15T01:54:40;6.30;99.90
32612;DHT22;19030;49.478;8.986;2022-11-15T01:57:03;6.30;99.90
32612;DHT22;19030;49.478;8.986;2022-11-15T01:59:25;6.30;99.90
32612;DHT22;19030;49.478;8.986;2022-11-15T02:01:45;6.40;99.90
32612;DHT22;19030;49.478;8.986;2022-11-15T02:06:31;6.40;99.90
32612;DHT22;19030;49.478;8.986;2022-11-15T02:08:50;6.40;99.90
32612;DHT22;19030;49.478;8.986;2022-11-15T02:11:10;6.40;99.90
32612;DHT22;19030;49.478;8.986;2022-11-15T02:13:29;6.40;99.90
32612;DHT22;19030;49.478;8.986;2022-11-15T02:18:52;6.40;99.90
32612;DHT22;19030;49.478;8.986;2022-11-15T02:26:49;6.40;99.90
32612;DHT22;19030;49.478;8.986;2022-11-15T02:29:13;6.40;99.90
32612;DHT22;19030;49.478;8.986;2022-11-15T02:31:48;6.40;99.90
32612;DHT22;19030;49.478;8.986;2022-11-15T02:37:22;6.40;99.90
32612;DHT22;19030;49.478;8.986;2022-11-15T02:42:33;6.30;99.90
32612;DHT22;19030;49.478;8.986;2022-11-15T02:45:19;6.20;99.90
32612;DHT22;19030;49.478;8.986;2022-11-15T02:47:43;6.20;99.90
32612;DHT22;19030;49.478;8.986;2022-11-15T02:50:08;6.10;99.90
32612;DHT22;19030;49.478;8.986;2022-11-15T02:52:27;6.10;99.90
32612;DHT22;19030;49.478;8.986;2022-11-15T02:54:57;6.00;99.90
32612;DHT22;19030;49.478;8.986;2022-11-15T02:57:19;6.00;99.90
32612;DHT22;19030;49.478;8.986;2022-11-15T03:00:01;6.00;99.90
32612;DHT22;19030;49.478;8.986;2022-11-15T03:15:47;6.00;99.90
32612;DHT22;19030;49.478;8.986;2022-11-15T03:18:21;5.90;99.90
32612;DHT22;19030;49.478;8.986;2022-11-15T03:20:42;5.90;99.90
32612;DHT22;19030;49.478;8.986;2022-11-15T03:23:08;5.80;99.90
32612;DHT22;19030;49.478;8.986;2022-11-15T03:25:29;5.80;99.90
32612;DHT22;19030;49.478;8.986;2022-11-15T03:27:55;5.70;99.90
32612;DHT22;19030;49.478;8.986;2022-11-15T03:30:16;5.70;99.90
32612;DHT22;19030;49.478;8.986;2022-11-15T03:32:42;5.70;99.90
32612;DHT22;19030;49.478;8.986;2022-11-15T03:35:07;5.70;99.90
32612;DHT22;19030;49.478;8.986;2022-11-15T03:39:51;5.80;99.90
32612;DHT22;19030;49.478;8.986;2022-11-15T03:42:21;5.90;99.90
32612;DHT22;19030;49.478;8.986;2022-11-15T03:44:45;5.90;99.90
32612;DHT22;19030;49.478;8.986;2022-11-15T03:47:19;6.00;99.90
32612;DHT22;19030;49.478;8.986;2022-11-15T03:49:44;6.10;99.90
32612;DHT22;19030;49.478;8.986;2022-11-15T03:52:04;6.10;99.90
32612;DHT22;19030;49.478;8.986;2022-11-15T03:54:24;6.10;99.90
32612;DHT22;19030;49.478;8.986;2022-11-15T03:56:43;6.20;99.90
32612;DHT22;19030;49.478;8.986;2022-11-15T03:59:04;6.20;99.90
32612;DHT22;19030;49.478;8.986;2022-11-15T04:01:23;6.30;99.90
32612;DHT22;19030;49.478;8.986;2022-11-15T04:03:43;6.30;99.90
32612;DHT22;19030;49.478;8.986;2022-11-15T04:06:02;6.30;99.90
32612;DHT22;19030;49.478;8.986;2022-11-15T04:08:20;6.30;99.90
32612;DHT22;19030;49.478;8.986;2022-11-15T04:10:39;6.30;99.90
32612;DHT22;19030;49.478;8.986;2022-11-15T04:12:58;6.30;99.90
32612;DHT22;19030;49.478;8.986;2022-11-15T04:15:20;6.30;99.90
32612;DHT22;19030;49.478;8.986;2022-11-15T04:20:00;6.40;99.90
32612;DHT22;19030;49.478;8.986;2022-11-15T04:22:38;6.40;99.90
32612;DHT22;19030;49.478;8.986;2022-11-15T04:25:23;6.40;99.90
32612;DHT22;19030;49.478;8.986;2022-11-15T04:27:42;6.40;99.90
32612;DHT22;19030;49.478;8.986;2022-11-15T04:30:01;6.40;99.90
32612;DHT22;19030;49.478;8.986;2022-11-15T04:32:20;6.40;99.90
32612;DHT22;19030;49.478;8.986;2022-11-15T04:34:39;6.40;99.90
32612;DHT22;19030;49.478;8.986;2022-11-15T04:36:59;6.40;99.90
32612;DHT22;19030;49.478;8.986;2022-11-15T04:39:30;6.50;99.90
32612;DHT22;19030;49.478;8.986;2022-11-15T04:41:49;6.50;99.90
32612;DHT22;19030;49.478;8.986;2022-11-15T04:44:08;6.50;99.90
32612;DHT22;19030;49.478;8.986;2022-11-15T04:46:28;6.50;99.90
32612;DHT22;19030;49.478;8.986;2022-11-15T04:48:47;6.60;99.90
32612;DHT22;19030;49.478;8.986;2022-11-15T04:51:06;6.60;99.90
32612;DHT22;19030;49.478;8.986;2022-11-15T04:53:25;6.60;99.90
32612;DHT22;19030;49.478;8.986;2022-11-15T04:55:45;6.70;99.90
32612;DHT22;19030;49.478;8.986;2022-11-15T04:58:04;6.70;99.90
32612;DHT22;19030;49.478;8.986;2022-11-15T05:00:23;6.70;99.90
32612;DHT22;19030;49.478;8.986;2022-11-15T05:02:42;6.70;99.90
32612;DHT22;19030;49.478;8.986;2022-11-15T05:05:20;6.70;99.90
32612;DHT22;19030;49.478;8.986;2022-11-15T05:07:40;6.70;99.90
32612;DHT22;19030;49.478;8.986;2022-11-15T05:09:59;6.70;99.90
32612;DHT22;19030;49.478;8.986;2022-11-15T05:12:18;6.60;99.90
32612;DHT22;19030;49.478;8.986;2022-11-15T05:14:37;6.60;99.90
32612;DHT22;19030;49.478;8.986;2022-11-15T05:16:55;6.60;99.90
32612;DHT22;19030;49.478;8.986;2022-11-15T05:19:14;6.70;99.90
32612;DHT22;19030;49.478;8.986;2022-11-15T05:21:34;6.70;99.90
32612;DHT22;19030;49.478;8.986;2022-11-15T05:23:53;6.70;99.90
32612;DHT22;19030;49.478;8.986;2022-11-15T05:26:12;6.70;99.90
32612;DHT22;19030;49.478;8.986;2022-11-15T05:28:34;6.70;99.90
32612;DHT22;19030;49.478;8.986;2022-11-15T05:30:53;6.70;99.90
32612;DHT22;19030;49.478;8.986;2022-11-15T05:33:12;6.70;99.90
32612;DHT22;19030;49.478;8.986;2022-11-15T05:35:37;6.60;99.90
32612;DHT22;19030;49.478;8.986;2022-11-15T05:37:57;6.60;99.90
32612;DHT22;19030;49.478;8.986;2022-11-15T05:40:16;6.60;99.90
32612;DHT22;19030;49.478;8.986;2022-11-15T05:42:36;6.50;99.90
32612;DHT22;19030;49.478;8.986;2022-11-15T05:44:55;6.50;99.90
32612;DHT22;19030;49.478;8.986;2022-11-15T05:47:21;6.50;99.90
32612;DHT22;19030;49.478;8.986;2022-11-15T05:49:43;6.50;99.90
32612;DHT22;19030;49.478;8.986;2022-11-15T05:52:05;6.50;99.90
32612;DHT22;19030;49.478;8.986;2022-11-15T05:54:26;6.50;99.90
32612;DHT22;19030;49.478;8.986;2022-11-15T05:56:45;6.50;99.90
32612;DHT22;19030;49.478;8.986;2022-11-15T05:59:05;6.40;99.90
32612;DHT22;19030;49.478;8.986;2022-11-15T06:01:26;6.40;99.90
32612;DHT22;19030;49.478;8.986;2022-11-15T06:03:45;6.40;99.90
32612;DHT22;19030;49.478;8.986;2022-11-15T06:06:05;6.40;99.90
32612;DHT22;19030;49.478;8.986;2022-11-15T06:08:24;6.30;99.90
32612;DHT22;19030;49.478;8.986;2022-11-15T06:10:43;6.30;99.90
32612;DHT22;19030;49.478;8.986;2022-11-15T06:13:03;6.30;99.90
32612;DHT22;19030;49.478;8.986;2022-11-15T06:15:23;6.20;99.90
32612;DHT22;19030;49.478;8.986;2022-11-15T06:17:42;6.20;99.90
32612;DHT22;19030;49.478;8.986;2022-11-15T06:20:01;6.20;99.90
32612;DHT22;19030;49.478;8.986;2022-11-15T06:22:20;6.30;99.90
32612;DHT22;19030;49.478;8.986;2022-11-15T06:24:39;6.30;99.90
32612;DHT22;19030;49.478;8.986;2022-11-15T06:26:58;6.40;99.90
32612;DHT22;19030;49.478;8.986;2022-11-15T06:29:17;6.40;99.90
32612;DHT22;19030;49.478;8.986;2022-11-15T06:31:36;6.40;99.90
32612;DHT22;19030;49.478;8.986;2022-11-15T06:33:55;6.40;99.90
32612;DHT22;19030;49.478;8.986;2022-11-15T06:36:15;6.50;99.90
32612;DHT22;19030;49.478;8.986;2022-11-15T06:38:35;6.50;99.90
32612;DHT22;19030;49.478;8.986;2022-11-15T06:41:00;6.40;99.90
32612;DHT22;19030;49.478;8.986;2022-11-15T06:43:19;6.40;99.90
32612;DHT22;19030;49.478;8.986;2022-11-15T06:45:38;6.30;99.90
32612;DHT22;19030;49.478;8.986;2022-11-15T06:47:58;6.30;99.90
32612;DHT22;19030;49.478;8.986;2022-11-15T06:50:17;6.30;99.90
32612;DHT22;19030;49.478;8.986;2022-11-15T06:52:36;6.30;99.90
32612;DHT22;19030;49.478;8.986;2022-11-15T06:54:55;6.20;99.90
32612;DHT22;19030;49.478;8.986;2022-11-15T06:57:14;6.20;99.90
32612;DHT22;19030;49.478;8.986;2022-11-15T06:59:34;6.20;99.90
32612;DHT22;19030;49.478;8.986;2022-11-15T07:01:53;6.20;99.90
32612;DHT22;19030;49.478;8.986;2022-11-15T07:04:12;6.20;99.90
32612;DHT22;19030;49.478;8.986;2022-11-15T07:06:31;6.30;99.90
32612;DHT22;19030;49.478;8.986;2022-11-15T07:08:50;6.40;99.90
32612;DHT22;19030;49.478;8.986;2022-11-15T07:11:09;6.40;99.90
32612;DHT22;19030;49.478;8.986;2022-11-15T07:13:30;6.40;99.90
32612;DHT22;19030;49.478;8.986;2022-11-15T07:15:52;6.50;99.90
32612;DHT22;19030;49.478;8.986;2022-11-15T07:18:11;6.60;99.90
32612;DHT22;19030;49.478;8.986;2022-11-15T07:20:31;6.70;99.90
32612;DHT22;19030;49.478;8.986;2022-11-15T07:22:50;6.90;99.90
32612;DHT22;19030;49.478;8.986;2022-11-15T07:25:09;7.00;99.90
32612;DHT22;19030;49.478;8.986;2022-11-15T07:27:28;7.20;99.90
32612;DHT22;19030;49.478;8.986;2022-11-15T07:29:47;7.30;99.90
32612;DHT22;19030;49.478;8.986;2022-11-15T07:32:06;7.40;99.90
32612;DHT22;19030;49.478;8.986;2022-11-15T07:34:24;7.60;99.90
32612;DHT22;19030;49.478;8.986;2022-11-15T07:36:44;7.80;99.90
32612;DHT22;19030;49.478;8.986;2022-11-15T07:39:03;8.10;99.90
32612;DHT22;19030;49.478;8.986;2022-11-15T07:41:22;8.30;99.90
32612;DHT22;19030;49.478;8.986;2022-11-15T07:43:41;8.40;99.90
32612;DHT22;19030;49.478;8.986;2022-11-15T07:46:05;8.50;99.90
32612;DHT22;19030;49.478;8.986;2022-11-15T07:48:28;8.60;99.90
32612;DHT22;19030;49.478;8.986;2022-11-15T07:50:47;8.90;99.90
32612;DHT22;19030;49.478;8.986;2022-11-15T07:53:08;9.50;99.90
32612;DHT22;19030;49.478;8.986;2022-11-15T07:55:28;10.20;99.90
32612;DHT22;19030;49.478;8.986;2022-11-15T07:57:48;10.70;99.90
32612;DHT22;19030;49.478;8.986;2022-11-15T08:00:08;11.00;99.90
32612;DHT22;19030;49.478;8.986;2022-11-15T08:02:27;11.30;99.90
32612;DHT22;19030;49.478;8.986;2022-11-15T08:04:46;11.50;99.90
32612;DHT22;19030;49.478;8.986;2022-11-15T08:07:06;11.40;99.90
32612;DHT22;19030;49.478;8.986;2022-11-15T08:09:25;11.40;99.90
32612;DHT22;19030;49.478;8.986;2022-11-15T08:11:44;11.60;99.90
32612;DHT22;19030;49.478;8.986;2022-11-15T08:14:03;12.00;99.90
32612;DHT22;19030;49.478;8.986;2022-11-15T08:16:22;12.90;99.90
32612;DHT22;19030;49.478;8.986;2022-11-15T08:18:41;13.70;99.90
32612;DHT22;19030;49.478;8.986;2022-11-15T08:21:01;14.20;99.90
32612;DHT22;19030;49.478;8.986;2022-11-15T08:23:20;14.10;99.90
32612;DHT22;19030;49.478;8.986;2022-11-15T08:25:39;14.20;99.90
32612;DHT22;19030;49.478;8.986;2022-11-15T08:28:01;14.70;99.90
32612;DHT22;19030;49.478;8.986;2022-11-15T08:30:20;14.90;99.90
32612;DHT22;19030;49.478;8.986;2022-11-15T08:32:39;15.70;99.90
32612;DHT22;19030;49.478;8.986;2022-11-15T08:34:58;17.70;99.90
32612;DHT22;19030;49.478;8.986;2022-11-15T08:37:17;19.50;92.00
32612;DHT22;19030;49.478;8.986;2022-11-15T08:39:36;20.10;82.70
32612;DHT22;19030;49.478;8.986;2022-11-15T08:41:57;20.40;77.40
32612;DHT22;19030;49.478;8.986;2022-11-15T08:44:16;20.60;74.10
32612;DHT22;19030;49.478;8.986;2022-11-15T08:46:35;20.30;74.50
32612;DHT22;19030;49.478;8.986;2022-11-15T08:48:54;20.20;73.40
32612;DHT22;19030;49.478;8.986;2022-11-15T08:51:13;20.00;73.90
32612;DHT22;19030;49.478;8.986;2022-11-15T08:53:33;19.90;74.50
32612;DHT22;19030;49.478;8.986;2022-11-15T08:55:53;19.60;75.50
32612;DHT22;19030;49.478;8.986;2022-11-15T08:58:12;19.70;75.00
32612;DHT22;19030;49.478;8.986;2022-11-15T09:00:31;19.40;74.80
32612;DHT22;19030;49.478;8.986;2022-11-15T09:02:51;18.60;78.70
32612;DHT22;19030;49.478;8.986;2022-11-15T09:05:10;18.10;81.30
32612;DHT22;19030;49.478;8.986;2022-11-15T09:07:29;17.20;85.00
32612;DHT22;19030;49.478;8.986;2022-11-15T09:09:49;16.60;90.60
32612;DHT22;19030;49.478;8.986;2022-11-15T09:12:08;16.20;91.50
32612;DHT22;19030;49.478;8.986;2022-11-15T09:14:27;15.40;93.70
32612;DHT22;19030;49.478;8.986;2022-11-15T09:16:46;14.60;97.30
32612;DHT22;19030;49.478;8.986;2022-11-15T09:19:05;14.30;99.90
32612;DHT22;19030;49.478;8.986;2022-11-15T09:21:25;13.90;99.90
32612;DHT22;19030;49.478;8.986;2022-11-15T09:23:44;13.50;99.90
32612;DHT22;19030;49.478;8.986;2022-11-15T09:26:04;13.20;99.90
32612;DHT22;19030;49.478;8.986;2022-11-15T09:28:23;13.10;99.90
32612;DHT22;19030;49.478;8.986;2022-11-15T09:30:43;13.00;99.90
32612;DHT22;19030;49.478;8.986;2022-11-15T09:33:09;13.00;99.90
32612;DHT22;19030;49.478;8.986;2022-11-15T09:35:28;13.10;99.90
32612;DHT22;19030;49.478;8.986;2022-11-15T09:37:47;13.10;99.90
32612;DHT22;19030;49.478;8.986;2022-11-15T09:40:10;13.00;99.90
32612;DHT22;19030;49.478;8.986;2022-11-15T09:42:58;12.90;99.90
32612;DHT22;19030;49.478;8.986;2022-11-15T09:45:34;12.80;99.90
32612;DHT22;19030;49.478;8.986;2022-11-15T09:48:35;12.70;99.90
32612;DHT22;19030;49.478;8.986;2022-11-15T09:50:55;12.70;99.90
32612;DHT22;19030;49.478;8.986;2022-11-15T09:52:59;12.60;99.90
32612;DHT22;19030;49.478;8.986;2022-11-15T09:55:00;12.50;99.90
32612;DHT22;19030;49.478;8.986;2022-11-15T09:57:13;12.50;99.90
32612;DHT22;19030;49.478;8.986;2022-11-15T09:59:18;12.60;99.90
32612;DHT22;19030;49.478;8.986;2022-11-15T10:03:59;13.30;99.90
32612;DHT22;19030;49.478;8.986;2022-11-15T10:06:02;13.60;99.90
32612;DHT22;19030;49.478;8.986;2022-11-15T10:10:36;13.80;99.90
32612;DHT22;19030;49.478;8.986;2022-11-15T10:12:40;14.00;99.90
32612;DHT22;19030;49.478;8.986;2022-11-15T10:14:46;14.20;99.90
32612;DHT22;19030;49.478;8.986;2022-11-15T10:21:45;14.30;99.90
32612;DHT22;19030;49.478;8.986;2022-11-15T10:23:51;14.40;99.90
32612;DHT22;19030;49.478;8.986;2022-11-15T10:25:58;14.30;99.90
32612;DHT22;19030;49.478;8.986;2022-11-15T10:28:09;14.10;99.90
32612;DHT22;19030;49.478;8.986;2022-11-15T10:30:13;13.90;99.90
32612;DHT22;19030;49.478;8.986;2022-11-15T10:32:15;13.70;99.90
32612;DHT22;19030;49.478;8.986;2022-11-15T10:34:22;13.70;99.90
32612;DHT22;19030;49.478;8.986;2022-11-15T10:36:23;13.70;99.90
32612;DHT22;19030;49.478;8.986;2022-11-15T10:38:27;13.60;99.90
32612;DHT22;19030;49.478;8.986;2022-11-15T10:40:27;13.70;99.90
32612;DHT22;19030;49.478;8.986;2022-11-15T10:42:29;13.90;99.90
32612;DHT22;19030;49.478;8.986;2022-11-15T10:44:30;14.30;99.90
32612;DHT22;19030;49.478;8.986;2022-11-15T10:46:30;14.70;99.90
32612;DHT22;19030;49.478;8.986;2022-11-15T10:48:31;15.20;99.90
32612;DHT22;19030;49.478;8.986;2022-11-15T10:50:32;15.80;99.90
32612;DHT22;19030;49.478;8.986;2022-11-15T10:52:35;16.40;99.90
32612;DHT22;19030;49.478;8.986;2022-11-15T10:54:44;16.80;99.90
32612;DHT22;19030;49.478;8.986;2022-11-15T10:56:50;16.80;99.90
32612;DHT22;19030;49.478;8.986;2022-11-15T10:58:56;16.70;99.90
32612;DHT22;19030;49.478;8.986;2022-11-15T11:01:18;16.50;99.90
32612;DHT22;19030;49.478;8.986;2022-11-15T11:03:34;16.20;99.90
32612;DHT22;19030;49.478;8.986;2022-11-15T11:05:40;15.90;99.90
32612;DHT22;19030;49.478;8.986;2022-11-15T11:07:40;15.40;99.90
32612;DHT22;19030;49.478;8.986;2022-11-15T11:09:41;14.90;99.90
32612;DHT22;19030;49.478;8.986;2022-11-15T11:11:52;14.60;99.90
32612;DHT22;19030;49.478;8.986;2022-11-15T11:13:52;14.20;99.90
32612;DHT22;19030;49.478;8.986;2022-11-15T11:18:17;13.90;99.90
32612;DHT22;19030;49.478;8.986;2022-11-15T11:20:40;13.80;99.90
32612;DHT22;19030;49.478;8.986;2022-11-15T11:23:13;13.80;99.90
32612;DHT22;19030;49.478;8.986;2022-11-15T11:28:05;14.20;99.90
32612;DHT22;19030;49.478;8.986;2022-11-15T11:30:19;14.80;99.90
32612;DHT22;19030;49.478;8.986;2022-11-15T11:35:04;16.60;99.90
32612;DHT22;19030;49.478;8.986;2022-11-15T11:37:20;18.00;99.90
32612;DHT22;19030;49.478;8.986;2022-11-15T11:44:15;22.50;78.80
32612;DHT22;19030;49.478;8.986;2022-11-15T11:48:38;21.90;72.20
32612;DHT22;19030;49.478;8.986;2022-11-15T11:50:42;21.40;71.50
32612;DHT22;19030;49.478;8.986;2022-11-15T11:59:50;21.00;71.00
32612;DHT22;19030;49.478;8.986;2022-11-15T12:01:51;20.40;72.70
32612;DHT22;19030;49.478;8.986;2022-11-15T12:04:08;19.90;72.90
32612;DHT22;19030;49.478;8.986;2022-11-15T12:09:00;18.90;79.90
32612;DHT22;19030;49.478;8.986;2022-11-15T12:11:14;18.40;84.80
32612;DHT22;19030;49.478;8.986;2022-11-15T12:13:21;18.10;87.40
32612;DHT22;19030;49.478;8.986;2022-11-15T12:15:32;17.90;88.70
32612;DHT22;19030;49.478;8.986;2022-11-15T12:17:37;17.70;89.00
32612;DHT22;19030;49.478;8.986;2022-11-15T12:19:39;17.50;90.40
32612;DHT22;19030;49.478;8.986;2022-11-15T12:21:44;17.20;91.30
32612;DHT22;19030;49.478;8.986;2022-11-15T12:23:54;17.20;91.80
32612;DHT22;19030;49.478;8.986;2022-11-15T12:31:00;16.90;92.30
32612;DHT22;19030;49.478;8.986;2022-11-15T12:33:03;16.80;93.40
32612;DHT22;19030;49.478;8.986;2022-11-15T12:35:06;16.60;94.30
32612;DHT22;19030;49.478;8.986;2022-11-15T12:53:26;15.30;99.90
32612;DHT22;19030;49.478;8.986;2022-11-15T12:55:32;15.30;99.90
32612;DHT22;19030;49.478;8.986;2022-11-15T12:57:35;15.30;99.90
32612;DHT22;19030;49.478;8.986;2022-11-15T13:01:57;15.20;99.90
32612;DHT22;19030;49.478;8.986;2022-11-15T13:06:42;15.20;99.90
32612;DHT22;19030;49.478;8.986;2022-11-15T13:08:45;15.10;99.90
32612;DHT22;19030;49.478;8.986;2022-11-15T13:10:47;15.00;99.90
32612;DHT22;19030;49.478;8.986;2022-11-15T13:12:50;15.00;99.90
32612;DHT22;19030;49.478;8.986;2022-11-15T13:19:18;14.90;99.90
32612;DHT22;19030;49.478;8.986;2022-11-15T13:21:23;14.90;99.90
32612;DHT22;19030;49.478;8.986;2022-11-15T13:23:45;14.90;99.90
32612;DHT22;19030;49.478;8.986;2022-11-15T13:26:03;14.80;99.90
32612;DHT22;19030;49.478;8.986;2022-11-15T13:30:20;14.60;99.90
32612;DHT22;19030;49.478;8.986;2022-11-15T13:32:22;14.60;99.90
32612;DHT22;19030;49.478;8.986;2022-11-15T13:34:29;14.60;99.90
32612;DHT22;19030;49.478;8.986;2022-11-15T13:36:33;14.50;99.90
32612;DHT22;19030;49.478;8.986;2022-11-15T13:38:36;14.50;99.90
32612;DHT22;19030;49.478;8.986;2022-11-15T13:40:37;14.50;99.90
32612;DHT22;19030;49.478;8.986;2022-11-15T13:42:38;14.50;99.90
32612;DHT22;19030;49.478;8.986;2022-11-15T13:44:39;14.60;99.90
32612;DHT22;19030;49.478;8.986;2022-11-15T13:46:39;14.70;99.90
32612;DHT22;19030;49.478;8.986;2022-11-15T13:48:41;14.70;99.90
32612;DHT22;19030;49.478;8.986;2022-11-15T13:50:42;14.80;99.90
32612;DHT22;19030;49.478;8.986;2022-11-15T13:52:44;14.70;99.90
32612;DHT22;19030;49.478;8.986;2022-11-15T13:55:04;14.80;99.90
32612;DHT22;19030;49.478;8.986;2022-11-15T13:57:16;14.80;99.90
32612;DHT22;19030;49.478;8.986;2022-11-15T13:59:27;14.90;99.90
32612;DHT22;19030;49.478;8.986;2022-11-15T14:01:30;14.90;99.90
32612;DHT22;19030;49.478;8.986;2022-11-15T14:03:35;15.00;99.90
32612;DHT22;19030;49.478;8.986;2022-11-15T14:05:38;15.00;99.90
32612;DHT22;19030;49.478;8.986;2022-11-15T14:07:39;15.00;99.90
32612;DHT22;19030;49.478;8.986;2022-11-15T14:09:40;14.90;99.90
32612;DHT22;19030;49.478;8.986;2022-11-15T14:11:52;14.80;99.90
32612;DHT22;19030;49.478;8.986;2022-11-15T14:16:20;14.70;99.90
32612;DHT22;19030;49.478;8.986;2022-11-15T14:18:47;14.70;99.90
32612;DHT22;19030;49.478;8.986;2022-11-15T14:20:48;14.70;99.90
32612;DHT22;19030;49.478;8.986;2022-11-15T14:22:57;14.80;99.90
32612;DHT22;19030;49.478;8.986;2022-11-15T14:25:17;15.00;99.90
32612;DHT22;19030;49.478;8.986;2022-11-15T14:29:30;15.30;99.90
32612;DHT22;19030;49.478;8.986;2022-11-15T14:31:30;15.40;99.90
32612;DHT22;19030;49.478;8.986;2022-11-15T14:33:36;15.40;99.90
32612;DHT22;19030;49.478;8.986;2022-11-15T14:35:38;15.30;99.90
32612;DHT22;19030;49.478;8.986;2022-11-15T14:37:39;15.10;99.90
32612;DHT22;19030;49.478;8.986;2022-11-15T14:39:39;15.00;99.90
32612;DHT22;19030;49.478;8.986;2022-11-15T14:41:40;15.00;99.90
32612;DHT22;19030;49.478;8.986;2022-11-15T14:43:40;14.90;99.90
32612;DHT22;19030;49.478;8.986;2022-11-15T14:45:41;14.80;99.90
32612;DHT22;19030;49.478;8.986;2022-11-15T14:47:42;14.70;99.90
32612;DHT22;19030;49.478;8.986;2022-11-15T14:49:43;14.60;99.90
32612;DHT22;19030;49.478;8.986;2022-11-15T14:51:43;14.50;99.90
32612;DHT22;19030;49.478;8.986;2022-11-15T14:53:45;14.40;99.90
32612;DHT22;19030;49.478;8.986;2022-11-15T14:55:45;14.40;99.90
32612;DHT22;19030;49.478;8.986;2022-11-15T14:57:46;14.30;99.90
32612;DHT22;19030;49.478;8.986;2022-11-15T14:59:47;14.20;99.90
32612;DHT22;19030;49.478;8.986;2022-11-15T15:01:48;14.10;99.90
32612;DHT22;19030;49.478;8.986;2022-11-15T15:03:48;14.00;99.90
32612;DHT22;19030;49.478;8.986;2022-11-15T15:05:49;13.90;99.90
32612;DHT22;19030;49.478;8.986;2022-11-15T15:07:50;13.90;99.90
32612;DHT22;19030;49.478;8.986;2022-11-15T15:09:53;13.80;99.90
32612;DHT22;19030;49.478;8.986;2022-11-15T15:11:53;13.80;99.90
32612;DHT22;19030;49.478;8.986;2022-11-15T15:13:55;13.70;99.90
32612;DHT22;19030;49.478;8.986;2022-11-15T15:15:57;13.60;99.90
32612;DHT22;19030;49.478;8.986;2022-11-15T15:17:58;13.50;99.90
32612;DHT22;19030;49.478;8.986;2022-11-15T15:19:58;13.40;99.90
32612;DHT22;19030;49.478;8.986;2022-11-15T15:21:59;13.30;99.90
32612;DHT22;19030;49.478;8.986;2022-11-15T15:23:59;13.20;99.90
32612;DHT22;19030;49.478;8.986;2022-11-15T15:26:00;13.20;99.90
32612;DHT22;19030;49.478;8.986;2022-11-15T15:28:01;13.10;99.90
32612;DHT22;19030;49.478;8.986;2022-11-15T15:30:02;13.00;99.90
32612;DHT22;19030;49.478;8.986;2022-11-15T15:32:03;13.00;99.90
32612;DHT22;19030;49.478;8.986;2022-11-15T15:34:04;12.90;99.90
32612;DHT22;19030;49.478;8.986;2022-11-15T15:36:05;12.90;99.90
32612;DHT22;19030;49.478;8.986;2022-11-15T15:38:05;12.80;99.90
32612;DHT22;19030;49.478;8.986;2022-11-15T15:40:25;12.70;99.90
32612;DHT22;19030;49.478;8.986;2022-11-15T15:42:27;12.50;99.90
32612;DHT22;19030;49.478;8.986;2022-11-15T15:44:28;12.50;99.90
32612;DHT22;19030;49.478;8.986;2022-11-15T15:46:28;12.40;99.90
32612;DHT22;19030;49.478;8.986;2022-11-15T15:48:29;12.40;99.90
32612;DHT22;19030;49.478;8.986;2022-11-15T15:50:32;12.30;99.90
32612;DHT22;19030;49.478;8.986;2022-11-15T15:52:33;12.30;99.90
32612;DHT22;19030;49.478;8.986;2022-11-15T15:54:34;12.20;99.90
32612;DHT22;19030;49.478;8.986;2022-11-15T15:56:34;12.20;99.90
32612;DHT22;19030;49.478;8.986;2022-11-15T15:58:35;12.10;99.90
32612;DHT22;19030;49.478;8.986;2022-11-15T16:00:36;12.10;99.90
32612;DHT22;19030;49.478;8.986;2022-11-15T16:02:37;12.00;99.90
32612;DHT22;19030;49.478;8.986;2022-11-15T16:04:38;12.00;99.90